createdAt,value
2022-11-15T00:00:52.825Z,5.71
2022-11-15T00:03:22.441Z,5.71
2022-11-15T00:05:49.965Z,5.71
2022-11-15T00:08:16.880Z,5.72
2022-11-15T00:10:43.718Z,5.72
2022-11-15T00:13:12.691Z,5.75
2022-11-15T00:15:40.585Z,5.74
2022-11-15T00:18:12.858Z,5.74
2022-11-15T00:20:39.321Z,5.78
2022-11-15T00:23:06.169Z,5.80
2022-11-15T00:25:32.940Z,5.81
2022-11-15T00:28:00.790Z,5.84
2022-11-15T00:30:28.127Z,5.84
2022-11-15T00:32:54.678Z,5.87
2022-11-15T00:35:21.979Z,5.88
2022-11-15T00:37:49.120Z,5.90
2022-11-15T00:40:16.252Z,5.91
2022-11-15T00:42:43.037Z,5.94
2022-11-15T00:45:10.463Z,5.95
2022-11-15T00:47:37.011Z,5.96
2022-11-15T00:50:04.056Z,5.97
2022-11-15T00:52:30.573Z,5.96
2022-11-15T00:54:57.048Z,6.00
2022-11-15T00:57:23.646Z,6.01
2022-11-15T00:59:50.144Z,6.02
2022-11-15T01:02:16.638Z,6.05
2022-11-15T01:04:43.095Z,6.06
2022-11-15T01:07:09.686Z,6.09
2022-11-15T01:09:36.200Z,6.11
2022-11-15T01:12:02.693Z,6.12
2022-11-15T01:14:29.179Z,6.14
2022-11-15T01:16:55.778Z,6.15
2022-11-15T01:19:22.245Z,6.16
2022-11-15T01:21:52.242Z,6.17
2022-11-15T01:24:18.708Z,6.18
2022-11-15T01:26:45.446Z,6.22
2022-11-15T01:29:11.959Z,6.24
2022-11-15T01:31:39.032Z,6.26
2022-11-15T01:34:05.674Z,6.26
2022-11-15T01:36:32.274Z,6.28
2022-11-15T01:38:59.542Z,6.33
2022-11-15T01:41:29.777Z,6.36
2022-11-15T01:43:59.177Z,6.41
2022-11-15T01:46:35.819Z,6.42
2022-11-15T01:49:15.107Z,6.42
2022-11-15T01:51:41.685Z,6.46
2022-11-15T01:54:15.894Z,6.48
2022-11-15T01:56:48.879Z,6.51
2022-11-15T01:59:15.754Z,6.51
2022-11-15T02:01:42.775Z,6.53
2022-11-15T02:04:17.595Z,6.56
2022-11-15T02:06:45.003Z,6.59
2022-11-15T02:09:12.670Z,6.62
2022-11-15T02:11:39.317Z,6.63
2022-11-15T02:14:07.572Z,6.66
2022-11-15T02:16:55.974Z,6.67
2022-11-15T02:19:34.664Z,6.70
2022-11-15T02:22:22.752Z,6.72
2022-11-15T02:25:02.474Z,6.72
2022-11-15T02:27:56.498Z,6.76
2022-11-15T02:30:34.088Z,6.77
2022-11-15T02:33:10.712Z,6.81
2022-11-15T02:35:55.592Z,6.85
2022-11-15T02:38:37.257Z,6.87
2022-11-15T02:41:09.862Z,6.92
2022-11-15T02:44:18.368Z,6.95
2022-11-15T02:47:15.117Z,6.98
2022-11-15T02:49:53.502Z,6.99
2022-11-15T02:52:26.257Z,7.05
2022-11-15T02:54:57.512Z,7.08
2022-11-15T02:57:53.043Z,7.07
2022-11-15T03:00:20.760Z,7.11
2022-11-15T03:03:14.654Z,7.20
2022-11-15T03:06:02.452Z,7.24
2022-11-15T03:08:45.475Z,7.24
2022-11-15T03:11:18.237Z,7.24
2022-11-15T03:14:02.073Z,7.27
2022-11-15T03:16:37.421Z,7.26
2022-11-15T03:19:14.453Z,7.29
2022-11-15T03:21:41.848Z,7.30
2022-11-15T03:24:10.275Z,7.32
2022-11-15T03:26:38.852Z,7.37
2022-11-15T03:29:18.402Z,7.45
2022-11-15T03:31:50.997Z,7.47
2022-11-15T03:34:29.378Z,7.49
2022-11-15T03:36:56.516Z,7.56
2022-11-15T03:39:24.648Z,7.60
2022-11-15T03:42:05.709Z,7.66
2022-11-15T03:44:52.571Z,7.68
2022-11-15T03:47:18.949Z,7.71
2022-11-15T03:50:00.676Z,7.71
2022-11-15T03:52:27.333Z,7.76
2022-11-15T03:54:56.831Z,7.82
2022-11-15T03:57:23.870Z,7.81
2022-11-15T03:59:50.354Z,7.85
2022-11-15T04:02:16.836Z,7.88
2022-11-15T04:04:43.378Z,7.88
2022-11-15T04:07:09.979Z,7.93
2022-11-15T04:09:56.812Z,7.96
2022-11-15T04:12:31.738Z,8.02
2022-11-15T04:15:08.913Z,8.04
2022-11-15T04:17:47.615Z,8.07
2022-11-15T04:20:42.109Z,8.06
2022-11-15T04:23:31.380Z,8.07
2022-11-15T04:26:02.382Z,8.04
2022-11-15T04:28:29.305Z,8.10
2022-11-15T04:30:56.002Z,8.14
2022-11-15T04:33:23.314Z,8.11
2022-11-15T04:36:08.490Z,8.18
2022-11-15T04:38:35.899Z,8.14
2022-11-15T04:41:02.642Z,8.20
2022-11-15T04:43:30.324Z,8.22
2022-11-15T04:45:57.038Z,8.20
2022-11-15T04:48:23.558Z,8.28
2022-11-15T04:50:50.120Z,8.29
2022-11-15T04:53:16.974Z,8.29
2022-11-15T04:55:46.524Z,8.28
2022-11-15T04:58:12.992Z,8.31
2022-11-15T05:00:40.823Z,8.30
2022-11-15T05:03:26.073Z,8.30
2022-11-15T05:05:52.518Z,8.31
2022-11-15T05:08:18.988Z,8.30
2022-11-15T05:10:45.928Z,8.32
2022-11-15T05:13:12.421Z,8.34
2022-11-15T05:15:39.033Z,8.32
2022-11-15T05:18:05.518Z,8.33
2022-11-15T05:20:32.090Z,8.35
2022-11-15T05:22:58.566Z,8.37
2022-11-15T05:25:25.659Z,8.33
2022-11-15T05:27:52.195Z,8.34
2022-11-15T05:30:18.733Z,8.32
2022-11-15T05:32:45.642Z,8.30
2022-11-15T05:35:22.846Z,8.34
2022-11-15T05:37:49.591Z,8.35
2022-11-15T05:40:16.541Z,8.36
2022-11-15T05:42:43.138Z,8.42
2022-11-15T05:45:10.447Z,8.44
2022-11-15T05:47:38.711Z,8.44
2022-11-15T05:50:05.715Z,8.42
2022-11-15T05:52:38.102Z,8.47
2022-11-15T05:55:07.597Z,8.52
2022-11-15T05:57:34.142Z,8.58
2022-11-15T06:00:01.060Z,8.55
2022-11-15T06:02:27.713Z,8.60
2022-11-15T06:04:54.206Z,8.64
2022-11-15T06:07:20.828Z,8.67
2022-11-15T06:09:47.328Z,8.73
2022-11-15T06:12:14.588Z,8.76
2022-11-15T06:14:41.112Z,8.76
2022-11-15T06:17:11.279Z,8.79
2022-11-15T06:19:38.258Z,8.82
2022-11-15T06:22:04.689Z,8.85
2022-11-15T06:24:31.165Z,8.89
2022-11-15T06:26:58.520Z,8.89
2022-11-15T06:29:25.000Z,8.87
2022-11-15T06:31:52.080Z,8.86
2022-11-15T06:34:18.598Z,8.89
2022-11-15T06:36:45.083Z,8.90
2022-11-15T06:39:11.631Z,8.88
2022-11-15T06:41:38.151Z,8.91
2022-11-15T06:44:04.638Z,8.94
2022-11-15T06:46:31.214Z,8.95
2022-11-15T06:48:57.683Z,8.95
2022-11-15T06:51:24.231Z,8.93
2022-11-15T06:53:50.727Z,8.90
2022-11-15T06:56:17.296Z,8.92
2022-11-15T06:58:43.787Z,8.89
2022-11-15T07:01:12.271Z,8.86
2022-11-15T07:03:40.991Z,8.88
2022-11-15T07:06:08.148Z,8.90
2022-11-15T07:08:35.405Z,8.97
2022-11-15T07:11:04.077Z,8.95
2022-11-15T07:13:36.201Z,8.95
2022-11-15T07:16:08.307Z,8.99
2022-11-15T07:18:36.745Z,9.02
2022-11-15T07:21:08.818Z,9.04
2022-11-15T07:23:39.193Z,9.07
2022-11-15T07:26:06.034Z,9.10
2022-11-15T07:28:32.522Z,9.10
2022-11-15T07:30:59.148Z,9.14
2022-11-15T07:33:25.574Z,9.15
2022-11-15T07:35:52.041Z,9.15
2022-11-15T07:38:21.843Z,9.15
2022-11-15T07:40:56.927Z,9.14
2022-11-15T07:43:23.378Z,9.14
2022-11-15T07:45:52.424Z,9.21
2022-11-15T07:48:22.947Z,9.21
2022-11-15T07:50:49.684Z,9.24
2022-11-15T07:53:16.462Z,9.26
2022-11-15T07:55:43.271Z,9.29
2022-11-15T07:58:12.184Z,9.32
2022-11-15T08:00:39.495Z,9.31
2022-11-15T08:03:06.917Z,9.25
2022-11-15T08:05:34.645Z,9.23
2022-11-15T08:08:01.341Z,9.26
2022-11-15T08:10:29.353Z,9.30
2022-11-15T08:13:04.144Z,9.32
2022-11-15T08:15:31.756Z,9.34
2022-11-15T08:18:00.093Z,9.37
2022-11-15T08:20:27.702Z,9.40
2022-11-15T08:22:54.152Z,9.42
2022-11-15T08:25:20.602Z,9.42
2022-11-15T08:27:47.155Z,9.48
2022-11-15T08:30:14.531Z,9.53
2022-11-15T08:32:41.006Z,9.56
2022-11-15T08:35:08.056Z,9.59
2022-11-15T08:37:34.499Z,9.61
2022-11-15T08:40:00.918Z,9.61
2022-11-15T08:42:27.460Z,9.61
2022-11-15T08:44:54.049Z,9.64
2022-11-15T08:47:20.555Z,9.67
2022-11-15T08:49:47.126Z,9.70
2022-11-15T08:52:14.898Z,9.70
2022-11-15T08:54:41.396Z,9.75
2022-11-15T08:57:08.070Z,9.82
2022-11-15T08:59:34.529Z,9.87
2022-11-15T09:02:01.021Z,9.94
2022-11-15T09:04:27.612Z,10.03
2022-11-15T09:06:54.130Z,10.09
2022-11-15T09:09:20.644Z,10.15
2022-11-15T09:11:47.738Z,10.20
2022-11-15T09:14:14.704Z,10.26
2022-11-15T09:16:41.415Z,10.34
2022-11-15T09:19:11.935Z,10.43
2022-11-15T09:21:38.676Z,10.53
2022-11-15T09:24:05.589Z,10.64
2022-11-15T09:26:32.198Z,10.72
2022-11-15T09:28:58.691Z,10.75
2022-11-15T09:31:25.834Z,10.74
2022-11-15T09:33:52.311Z,10.78
2022-11-15T09:36:18.885Z,10.78
2022-11-15T09:38:45.401Z,10.73
2022-11-15T09:41:15.124Z,10.69
2022-11-15T09:44:00.327Z,10.63
2022-11-15T09:47:05.676Z,10.55
2022-11-15T09:49:33.048Z,10.55
2022-11-15T09:51:59.992Z,10.60
2022-11-15T09:54:52.261Z,10.66
2022-11-15T09:57:36.067Z,10.78
2022-11-15T10:03:12.289Z,11.04
2022-11-15T10:05:48.168Z,11.07
2022-11-15T10:08:28.404Z,11.06
2022-11-15T10:11:34.937Z,11.09
2022-11-15T10:13:50.427Z,11.06
2022-11-15T10:16:41.080Z,11.06
2022-11-15T10:19:29.331Z,11.16
2022-11-15T10:22:04.705Z,11.19
2022-11-15T10:24:36.506Z,11.18
2022-11-15T10:27:10.811Z,11.19
2022-11-15T10:29:37.299Z,11.28
2022-11-15T10:32:04.081Z,11.33
2022-11-15T10:34:37.089Z,11.33
2022-11-15T10:37:03.708Z,11.26
2022-11-15T10:39:30.471Z,11.25
2022-11-15T10:41:58.046Z,11.26
2022-11-15T10:44:32.516Z,11.26
2022-11-15T10:46:58.953Z,11.21
2022-11-15T10:49:30.840Z,11.20
2022-11-15T10:52:01.657Z,11.22
2022-11-15T10:54:44.911Z,11.19
2022-11-15T10:57:24.350Z,11.21
2022-11-15T10:59:54.982Z,11.24
2022-11-15T11:02:39.051Z,11.22
2022-11-15T11:05:25.696Z,11.30
2022-11-15T11:08:21.772Z,11.28
2022-11-15T11:11:03.266Z,11.25
2022-11-15T11:13:36.055Z,11.43
2022-11-15T11:16:14.659Z,11.41
2022-11-15T11:18:53.122Z,11.41
2022-11-15T11:21:40.369Z,11.51
2022-11-15T11:24:19.770Z,11.47
2022-11-15T11:27:28.163Z,11.52
2022-11-15T11:30:17.541Z,11.64
2022-11-15T11:33:22.947Z,11.51
2022-11-15T11:36:27.675Z,11.41
2022-11-15T11:38:59.203Z,11.41
2022-11-15T11:41:47.795Z,11.40
2022-11-15T11:44:51.273Z,11.46
2022-11-15T11:47:25.684Z,11.46
2022-11-15T11:50:00.352Z,11.41
2022-11-15T11:52:33.492Z,11.47
2022-11-15T11:55:00.136Z,11.63
2022-11-15T11:57:34.103Z,11.70
2022-11-15T12:00:15.460Z,11.76
2022-11-15T12:03:08.966Z,11.85
2022-11-15T12:05:35.561Z,11.88
2022-11-15T12:08:24.433Z,11.90
2022-11-15T12:10:59.389Z,11.93
2022-11-15T12:13:29.980Z,11.94
2022-11-15T12:16:29.901Z,11.88
2022-11-15T12:19:00.083Z,11.84
2022-11-15T12:21:32.533Z,11.82
2022-11-15T12:24:08.014Z,11.82
2022-11-15T12:26:41.232Z,11.82
2022-11-15T12:29:17.755Z,11.81
2022-11-15T12:31:49.979Z,11.83
2022-11-15T12:34:23.113Z,11.83
2022-11-15T12:36:52.061Z,11.84
2022-11-15T12:39:19.255Z,11.85
2022-11-15T12:42:05.853Z,11.88
2022-11-15T12:44:32.221Z,11.94
2022-11-15T12:46:58.655Z,11.98
2022-11-15T12:49:25.093Z,12.01
2022-11-15T12:52:05.184Z,12.07
2022-11-15T12:54:37.394Z,12.15
2022-11-15T12:57:03.851Z,12.17
2022-11-15T12:59:51.641Z,12.14
2022-11-15T13:02:40.929Z,12.06
2022-11-15T13:05:16.681Z,12.06
2022-11-15T13:07:43.252Z,12.07
2022-11-15T13:10:12.974Z,12.08
2022-11-15T13:12:42.586Z,12.11
2022-11-15T13:15:18.185Z,12.07
2022-11-15T13:17:55.675Z,12.04
2022-11-15T13:20:24.556Z,12.01
2022-11-15T13:23:17.394Z,12.00
2022-11-15T13:25:56.574Z,11.97
2022-11-15T13:28:33.621Z,11.89
2022-11-15T13:31:15.012Z,11.84
2022-11-15T13:33:41.585Z,11.79
2022-11-15T13:36:16.596Z,11.74
2022-11-15T13:38:44.376Z,11.72
2022-11-15T13:41:22.784Z,11.65
2022-11-15T13:43:51.603Z,11.59
2022-11-15T13:46:28.275Z,11.53
2022-11-15T13:49:00.123Z,11.47
2022-11-15T13:51:40.705Z,11.42
2022-11-15T13:54:13.686Z,11.36
2022-11-15T13:56:46.346Z,11.32
2022-11-15T13:59:48.913Z,11.25
2022-11-15T14:02:21.560Z,11.23
2022-11-15T14:04:52.622Z,11.21
2022-11-15T14:07:21.977Z,11.18
2022-11-15T14:09:49.786Z,11.16
2022-11-15T14:12:28.437Z,11.12
2022-11-15T14:14:55.055Z,11.08
2022-11-15T14:17:49.848Z,11.05
2022-11-15T14:20:39.267Z,11.01
2022-11-15T14:23:20.440Z,11.01
2022-11-15T14:25:58.203Z,11.00
2022-11-15T14:28:24.623Z,11.00
2022-11-15T14:30:53.809Z,11.03
2022-11-15T14:33:24.891Z,11.03
2022-11-15T14:35:53.173Z,11.05
2022-11-15T14:38:19.880Z,11.07
2022-11-15T14:40:46.407Z,11.07
2022-11-15T14:43:13.912Z,11.05
2022-11-15T14:45:40.696Z,11.07
2022-11-15T14:48:07.393Z,11.07
2022-11-15T14:50:35.235Z,11.07
2022-11-15T14:53:01.835Z,11.08
2022-11-15T14:55:32.710Z,11.05
2022-11-15T14:58:00.024Z,11.07
2022-11-15T15:00:30.915Z,11.06
2022-11-15T15:03:00.918Z,11.04
2022-11-15T15:05:33.582Z,11.05
2022-11-15T15:08:00.906Z,11.04
2022-11-15T15:10:41.216Z,11.03
2022-11-15T15:13:17.732Z,11.03
2022-11-15T15:15:44.750Z,10.98
2022-11-15T15:18:12.329Z,10.96
2022-11-15T15:20:41.045Z,10.95
2022-11-15T15:23:17.096Z,10.94
2022-11-15T15:25:44.681Z,10.90
2022-11-15T15:28:11.191Z,10.89
2022-11-15T15:30:37.749Z,10.86
2022-11-15T15:33:04.273Z,10.83
2022-11-15T15:35:33.963Z,10.81
2022-11-15T15:38:01.063Z,10.80
2022-11-15T15:40:30.880Z,10.78
2022-11-15T15:42:57.467Z,10.77
2022-11-15T15:45:23.931Z,10.75
2022-11-15T15:47:51.076Z,10.74
2022-11-15T15:50:29.495Z,10.71
2022-11-15T15:52:58.587Z,10.74
2022-11-15T15:55:25.959Z,10.74
2022-11-15T15:57:52.863Z,10.74
2022-11-15T16:00:20.685Z,10.73
2022-11-15T16:02:47.320Z,10.75
2022-11-15T16:05:14.306Z,10.75
2022-11-15T16:07:41.521Z,10.74
2022-11-15T16:10:20.266Z,10.73
2022-11-15T16:12:47.644Z,10.71
2022-11-15T16:15:14.156Z,10.73
2022-11-15T16:17:49.747Z,10.72
2022-11-15T16:20:40.429Z,10.75
2022-11-15T16:23:09.957Z,10.78
2022-11-15T16:25:45.454Z,10.83
2022-11-15T16:28:24.385Z,10.81
2022-11-15T16:31:09.081Z,10.80
2022-11-15T16:33:36.318Z,10.80
2022-11-15T16:36:04.740Z,10.80
2022-11-15T16:38:32.224Z,10.81
2022-11-15T16:40:59.027Z,10.82
2022-11-15T16:43:26.150Z,10.82
2022-11-15T16:45:52.601Z,10.85
2022-11-15T16:48:28.748Z,10.87
2022-11-15T16:50:57.622Z,10.90
2022-11-15T16:53:25.146Z,10.93
2022-11-15T16:55:51.727Z,10.91
2022-11-15T16:58:18.240Z,10.92
2022-11-15T17:00:45.027Z,10.94
2022-11-15T17:03:11.999Z,10.96
2022-11-15T17:05:38.454Z,10.96
2022-11-15T17:08:04.999Z,10.97
2022-11-15T17:10:31.555Z,10.96
2022-11-15T17:12:58.014Z,10.96
2022-11-15T17:15:24.738Z,10.97
2022-11-15T17:17:53.325Z,10.95
2022-11-15T17:20:21.940Z,10.94
2022-11-15T17:22:48.574Z,10.93
2022-11-15T17:25:15.196Z,10.94
2022-11-15T17:27:41.645Z,10.91
2022-11-15T17:30:08.868Z,10.88
2022-11-15T17:32:38.908Z,10.84
2022-11-15T17:35:14.882Z,10.80
2022-11-15T17:37:41.946Z,10.74
2022-11-15T17:40:09.125Z,10.71
2022-11-15T17:42:35.907Z,10.68
2022-11-15T17:45:08.040Z,10.64
2022-11-15T17:47:36.659Z,10.61
2022-11-15T17:50:03.529Z,10.58
2022-11-15T17:52:30.027Z,10.56
2022-11-15T17:54:56.522Z,10.55
2022-11-15T17:57:23.007Z,10.53
2022-11-15T17:59:49.528Z,10.53
2022-11-15T18:02:16.055Z,10.51
2022-11-15T18:04:42.526Z,10.51
2022-11-15T18:07:12.417Z,10.49
2022-11-15T18:09:42.333Z,10.49
2022-11-15T18:12:10.227Z,10.48
2022-11-15T18:14:37.105Z,10.46
2022-11-15T18:17:03.555Z,10.45
2022-11-15T18:19:30.110Z,10.44
2022-11-15T18:21:56.829Z,10.42
2022-11-15T18:24:27.589Z,10.42
2022-11-15T18:26:54.216Z,10.43
2022-11-15T18:29:21.436Z,10.41
2022-11-15T18:31:50.412Z,10.40
2022-11-15T18:34:17.787Z,10.38
2022-11-15T18:36:44.287Z,10.38
2022-11-15T18:39:16.348Z,10.38
2022-11-15T18:41:49.432Z,10.38
2022-11-15T18:44:16.551Z,10.37
2022-11-15T18:46:45.098Z,10.35
2022-11-15T18:49:13.648Z,10.35
2022-11-15T18:51:42.019Z,10.35
2022-11-15T18:54:15.106Z,10.34
2022-11-15T18:56:44.228Z,10.34
2022-11-15T18:59:10.688Z,10.32
2022-11-15T19:01:39.598Z,10.33
2022-11-15T19:04:10.448Z,10.33
2022-11-15T19:06:42.255Z,10.32
2022-11-15T19:09:10.212Z,10.34
2022-11-15T19:11:39.431Z,10.31
2022-11-15T19:14:08.710Z,10.32
2022-11-15T19:16:49.835Z,10.32
2022-11-15T19:19:18.515Z,10.33
2022-11-15T19:21:45.653Z,10.32
2022-11-15T19:24:12.415Z,10.32
2022-11-15T19:26:39.335Z,10.31
2022-11-15T19:29:07.718Z,10.32
2022-11-15T19:31:34.382Z,10.34
2022-11-15T19:34:04.437Z,10.33
2022-11-15T19:36:34.288Z,10.34
2022-11-15T19:39:08.509Z,10.35
2022-11-15T19:41:37.847Z,10.38
2022-11-15T19:44:05.772Z,10.40
2022-11-15T19:46:32.587Z,10.42
2022-11-15T19:48:59.144Z,10.40
2022-11-15T19:51:30.845Z,10.40
2022-11-15T19:54:01.398Z,10.42
2022-11-15T19:56:27.911Z,10.41
2022-11-15T19:58:55.703Z,10.41
2022-11-15T20:01:27.880Z,10.41
2022-11-15T20:03:57.219Z,10.40
2022-11-15T20:06:26.411Z,10.41
2022-11-15T20:08:53.289Z,10.42
2022-11-15T20:11:20.129Z,10.42
2022-11-15T20:13:46.940Z,10.43
2022-11-15T20:16:19.794Z,10.43
2022-11-15T20:18:47.519Z,10.45
2022-11-15T20:21:14.070Z,10.44
2022-11-15T20:23:41.264Z,10.45
2022-11-15T20:26:09.601Z,10.46
2022-11-15T20:28:36.757Z,10.46
2022-11-15T20:31:03.416Z,10.46
2022-11-15T20:33:29.863Z,10.46
2022-11-15T20:35:56.434Z,10.45
2022-11-15T20:38:23.373Z,10.47
2022-11-15T20:40:52.734Z,10.46
2022-11-15T20:43:22.542Z,10.49
2022-11-15T20:45:50.478Z,10.49
2022-11-15T20:48:17.794Z,10.49
2022-11-15T20:50:46.029Z,10.49
2022-11-15T20:53:15.805Z,10.49
2022-11-15T20:55:44.050Z,10.51
2022-11-15T20:58:11.412Z,10.51
2022-11-15T21:00:38.516Z,10.51
2022-11-15T21:03:06.891Z,10.53
2022-11-15T21:05:41.328Z,10.54
2022-11-15T21:08:09.221Z,10.54
2022-11-15T21:10:54.338Z,10.55
2022-11-15T21:13:20.891Z,10.55
2022-11-15T21:15:47.452Z,10.54
2022-11-15T21:18:14.902Z,10.55
2022-11-15T21:20:41.426Z,10.56
2022-11-15T21:23:08.632Z,10.57
2022-11-15T21:25:35.103Z,10.58
2022-11-15T21:28:01.577Z,10.59
2022-11-15T21:30:28.137Z,10.60
2022-11-15T21:32:54.789Z,10.60
2022-11-15T21:35:21.441Z,10.61
2022-11-15T21:37:53.337Z,10.60
2022-11-15T21:40:22.807Z,10.61
2022-11-15T21:42:49.241Z,10.61
2022-11-15T21:45:15.828Z,10.64
2022-11-15T21:47:45.990Z,10.64
2022-11-15T21:50:13.150Z,10.66
2022-11-15T21:52:40.819Z,10.68
2022-11-15T21:55:08.436Z,10.68
2022-11-15T21:57:35.098Z,10.68
2022-11-15T22:00:20.353Z,10.70
2022-11-15T22:02:46.984Z,10.71
2022-11-15T22:05:13.475Z,10.71
2022-11-15T22:07:40.033Z,10.72
2022-11-15T22:10:07.033Z,10.70
2022-11-15T22:12:33.757Z,10.69
2022-11-15T22:15:00.309Z,10.69
2022-11-15T22:17:46.786Z,10.69
2022-11-15T22:20:42.520Z,10.69
2022-11-15T22:23:00.135Z,10.70
2022-11-15T22:25:26.814Z,10.71
2022-11-15T22:27:53.870Z,10.72
2022-11-15T22:30:21.275Z,10.73
2022-11-15T22:32:47.871Z,10.71
2022-11-15T22:35:14.809Z,10.71
2022-11-15T22:37:41.558Z,10.72
2022-11-15T22:40:09.077Z,10.72
2022-11-15T22:42:35.544Z,10.72
2022-11-15T22:45:01.992Z,10.72
2022-11-15T22:47:28.421Z,10.74
2022-11-15T22:49:54.993Z,10.73
2022-11-15T22:52:21.609Z,10.72
2022-11-15T22:54:48.131Z,10.72
2022-11-15T22:57:14.776Z,10.73
2022-11-15T22:59:42.474Z,10.71
2022-11-15T23:02:09.077Z,10.71
2022-11-15T23:04:35.679Z,10.72
2022-11-15T23:07:02.322Z,10.72
2022-11-15T23:09:28.940Z,10.75
2022-11-15T23:12:14.401Z,10.76
2022-11-15T23:14:40.993Z,10.76
2022-11-15T23:17:07.507Z,10.76
2022-11-15T23:19:34.046Z,10.76
2022-11-15T23:22:19.163Z,10.76
2022-11-15T23:24:45.827Z,10.77
2022-11-15T23:27:15.255Z,10.78
2022-11-15T23:30:00.361Z,10.78
2022-11-15T23:32:45.195Z,10.76
2022-11-15T23:35:11.863Z,10.76
2022-11-15T23:37:38.310Z,10.77
2022-11-15T23:40:05.464Z,10.77
2022-11-15T23:42:31.979Z,10.77
2022-11-15T23:44:58.488Z,10.78
2022-11-15T23:47:25.084Z,10.80
2022-11-15T23:49:51.580Z,10.79
2022-11-15T23:52:18.221Z,10.79
2022-11-15T23:54:45.023Z,10.79
2022-11-15T23:57:12.494Z,10.79
2022-11-15T23:59:40.233Z,10.82
